sensor_id;sensor_type;location;lat;lon;timestamp;temperature;humidity
36444;DHT22;24692;45.642;13.806;2023-01-29T00:01:29;4.90;99.90
36444;DHT22;24692;45.642;13.806;2023-01-29T00:03:55;4.90;99.90
36444;DHT22;24692;45.642;13.806;2023-01-29T00:06:21;4.90;99.90
36444;DHT22;24692;45.642;13.806;2023-01-29T00:08:48;5.00;99.90
36444;DHT22;24692;45.642;13.806;2023-01-29T00:11:14;5.10;99.90
36444;DHT22;24692;45.642;13.806;2023-01-29T00:13:41;5.10;99.90
36444;DHT22;24692;45.642;13.806;2023-01-29T00:16:07;5.10;99.90
36444;DHT22;24692;45.642;13.806;2023-01-29T00:18:37;5.00;99.90
36444;DHT22;24692;45.642;13.806;2023-01-29T00:21:05;5.10;99.90
36444;DHT22;24692;45.642;13.806;2023-01-29T00:23:32;5.10;99.90
36444;DHT22;24692;45.642;13.806;2023-01-29T00:26:00;5.10;99.90
36444;DHT22;24692;45.642;13.806;2023-01-29T00:28:26;5.10;99.90
36444;DHT22;24692;45.642;13.806;2023-01-29T00:30:52;5.00;99.90
36444;DHT22;24692;45.642;13.806;2023-01-29T00:33:17;5.00;99.90
36444;DHT22;24692;45.642;13.806;2023-01-29T00:35:43;4.90;99.90
36444;DHT22;24692;45.642;13.806;2023-01-29T00:38:09;4.90;99.90
36444;DHT22;24692;45.642;13.806;2023-01-29T00:40:37;4.90;99.90
36444;DHT22;24692;45.642;13.806;2023-01-29T00:43:22;4.80;99.90
36444;DHT22;24692;45.642;13.806;2023-01-29T00:46:06;4.60;99.90
36444;DHT22;24692;45.642;13.806;2023-01-29T00:48:33;4.50;99.90
36444;DHT22;24692;45.642;13.806;2023-01-29T00:50:59;4.40;99.90
36444;DHT22;24692;45.642;13.806;2023-01-29T00:53:24;4.40;99.90
36444;DHT22;24692;45.642;13.806;2023-01-29T00:55:50;4.50;99.90
36444;DHT22;24692;45.642;13.806;2023-01-29T00:58:15;4.50;99.90
36444;DHT22;24692;45.642;13.806;2023-01-29T01:00:47;4.50;99.90
36444;DHT22;24692;45.642;13.806;2023-01-29T01:03:14;4.50;99.90
36444;DHT22;24692;45.642;13.806;2023-01-29T01:05:40;4.50;99.90
36444;DHT22;24692;45.642;13.806;2023-01-29T01:08:08;4.60;99.90
36444;DHT22;24692;45.642;13.806;2023-01-29T01:11:01;4.60;99.90
36444;DHT22;24692;45.642;13.806;2023-01-29T01:13:27;4.40;99.90
36444;DHT22;24692;45.642;13.806;2023-01-29T01:15:53;4.40;99.90
36444;DHT22;24692;45.642;13.806;2023-01-29T01:18:19;4.40;99.90
36444;DHT22;24692;45.642;13.806;2023-01-29T01:20:47;4.40;99.90
36444;DHT22;24692;45.642;13.806;2023-01-29T01:23:20;4.50;99.90
36444;DHT22;24692;45.642;13.806;2023-01-29T01:25:45;4.50;99.90
36444;DHT22;24692;45.642;13.806;2023-01-29T01:28:11;4.50;99.90
36444;DHT22;24692;45.642;13.806;2023-01-29T01:30:37;4.50;99.90
36444;DHT22;24692;45.642;13.806;2023-01-29T01:33:03;4.50;99.90
36444;DHT22;24692;45.642;13.806;2023-01-29T01:35:28;4.60;99.90
36444;DHT22;24692;45.642;13.806;2023-01-29T01:37:54;4.60;99.90
36444;DHT22;24692;45.642;13.806;2023-01-29T01:40:21;4.50;99.90
36444;DHT22;24692;45.642;13.806;2023-01-29T01:42:48;4.50;99.90
36444;DHT22;24692;45.642;13.806;2023-01-29T01:50:37;4.40;99.90
36444;DHT22;24692;45.642;13.806;2023-01-29T01:53:08;4.40;99.90
36444;DHT22;24692;45.642;13.806;2023-01-29T01:55:39;4.30;99.90
36444;DHT22;24692;45.642;13.806;2023-01-29T01:58:31;4.40;99.90
36444;DHT22;24692;45.642;13.806;2023-01-29T02:00:58;4.50;99.90
36444;DHT22;24692;45.642;13.806;2023-01-29T02:03:24;4.50;99.90
36444;DHT22;24692;45.642;13.806;2023-01-29T02:06:10;4.40;99.90
36444;DHT22;24692;45.642;13.806;2023-01-29T02:08:57;4.30;99.90
36444;DHT22;24692;45.642;13.806;2023-01-29T02:11:44;4.40;99.90
36444;DHT22;24692;45.642;13.806;2023-01-29T02:14:10;4.40;99.90
36444;DHT22;24692;45.642;13.806;2023-01-29T02:16:36;4.50;99.90
36444;DHT22;24692;45.642;13.806;2023-01-29T02:19:04;4.50;99.90
36444;DHT22;24692;45.642;13.806;2023-01-29T02:27:23;4.70;99.90
36444;DHT22;24692;45.642;13.806;2023-01-29T02:30:22;4.80;99.90
36444;DHT22;24692;45.642;13.806;2023-01-29T02:32:59;4.60;99.90
36444;DHT22;24692;45.642;13.806;2023-01-29T02:35:34;4.60;99.90
36444;DHT22;24692;45.642;13.806;2023-01-29T02:38:09;4.60;99.90
36444;DHT22;24692;45.642;13.806;2023-01-29T02:48:42;4.50;99.90
36444;DHT22;24692;45.642;13.806;2023-01-29T02:51:23;4.60;99.90
36444;DHT22;24692;45.642;13.806;2023-01-29T02:56:28;4.50;99.90
36444;DHT22;24692;45.642;13.806;2023-01-29T02:59:01;4.50;99.90
36444;DHT22;24692;45.642;13.806;2023-01-29T03:01:37;4.50;99.90
36444;DHT22;24692;45.642;13.806;2023-01-29T03:04:11;4.50;99.90
36444;DHT22;24692;45.642;13.806;2023-01-29T03:06:45;4.50;99.90
36444;DHT22;24692;45.642;13.806;2023-01-29T03:09:20;4.50;99.90
36444;DHT22;24692;45.642;13.806;2023-01-29T03:11:57;4.50;99.90
36444;DHT22;24692;45.642;13.806;2023-01-29T03:14:34;4.40;99.90
36444;DHT22;24692;45.642;13.806;2023-01-29T03:17:23;4.40;99.90
36444;DHT22;24692;45.642;13.806;2023-01-29T03:19:51;4.20;99.90
36444;DHT22;24692;45.642;13.806;2023-01-29T03:22:17;4.10;99.90
36444;DHT22;24692;45.642;13.806;2023-01-29T03:24:52;4.10;99.90
36444;DHT22;24692;45.642;13.806;2023-01-29T03:27:58;4.10;99.90
36444;DHT22;24692;45.642;13.806;2023-01-29T03:30:53;4.00;99.90
36444;DHT22;24692;45.642;13.806;2023-01-29T03:34:00;4.00;99.90
36444;DHT22;24692;45.642;13.806;2023-01-29T03:36:33;3.90;99.90
36444;DHT22;24692;45.642;13.806;2023-01-29T03:39:08;3.90;99.90
36444;DHT22;24692;45.642;13.806;2023-01-29T03:41:47;3.90;99.90
36444;DHT22;24692;45.642;13.806;2023-01-29T03:47:19;3.80;99.90
36444;DHT22;24692;45.642;13.806;2023-01-29T03:52:36;4.00;99.90
36444;DHT22;24692;45.642;13.806;2023-01-29T03:55:19;3.90;99.90
36444;DHT22;24692;45.642;13.806;2023-01-29T03:57:52;3.90;99.90
36444;DHT22;24692;45.642;13.806;2023-01-29T04:00:25;3.90;99.90
36444;DHT22;24692;45.642;13.806;2023-01-29T04:03:23;3.90;99.90
36444;DHT22;24692;45.642;13.806;2023-01-29T04:05:55;3.90;99.90
36444;DHT22;24692;45.642;13.806;2023-01-29T04:08:31;3.80;99.90
36444;DHT22;24692;45.642;13.806;2023-01-29T04:11:04;3.90;99.90
36444;DHT22;24692;45.642;13.806;2023-01-29T04:13:33;3.80;99.90
36444;DHT22;24692;45.642;13.806;2023-01-29T04:16:00;3.80;99.90
36444;DHT22;24692;45.642;13.806;2023-01-29T04:18:26;3.70;99.90
36444;DHT22;24692;45.642;13.806;2023-01-29T04:20:52;3.60;99.90
36444;DHT22;24692;45.642;13.806;2023-01-29T04:23:23;3.60;99.90
36444;DHT22;24692;45.642;13.806;2023-01-29T04:31:10;3.60;99.90
36444;DHT22;24692;45.642;13.806;2023-01-29T04:34:03;3.60;99.90
36444;DHT22;24692;45.642;13.806;2023-01-29T04:45:15;3.70;99.90
36444;DHT22;24692;45.642;13.806;2023-01-29T04:48:36;3.60;99.90
36444;DHT22;24692;45.642;13.806;2023-01-29T04:59:16;3.70;99.90
36444;DHT22;24692;45.642;13.806;2023-01-29T05:01:45;3.70;99.90
36444;DHT22;24692;45.642;13.806;2023-01-29T05:04:14;3.60;99.90
36444;DHT22;24692;45.642;13.806;2023-01-29T05:06:41;3.60;99.90
36444;DHT22;24692;45.642;13.806;2023-01-29T05:09:08;3.60;99.90
36444;DHT22;24692;45.642;13.806;2023-01-29T05:11:34;3.60;99.90
36444;DHT22;24692;45.642;13.806;2023-01-29T05:14:03;3.60;99.90
36444;DHT22;24692;45.642;13.806;2023-01-29T05:16:34;3.60;99.90
36444;DHT22;24692;45.642;13.806;2023-01-29T05:19:11;3.60;99.90
36444;DHT22;24692;45.642;13.806;2023-01-29T05:21:39;3.50;99.90
36444;DHT22;24692;45.642;13.806;2023-01-29T05:24:16;3.50;99.90
36444;DHT22;24692;45.642;13.806;2023-01-29T05:26:43;3.50;99.90
36444;DHT22;24692;45.642;13.806;2023-01-29T05:29:29;3.50;99.90
36444;DHT22;24692;45.642;13.806;2023-01-29T05:31:55;3.50;99.90
36444;DHT22;24692;45.642;13.806;2023-01-29T05:34:20;3.60;99.90
36444;DHT22;24692;45.642;13.806;2023-01-29T05:36:46;3.50;99.90
36444;DHT22;24692;45.642;13.806;2023-01-29T05:39:11;3.50;99.90
36444;DHT22;24692;45.642;13.806;2023-01-29T05:41:37;3.50;99.90
36444;DHT22;24692;45.642;13.806;2023-01-29T05:44:03;3.50;99.90
36444;DHT22;24692;45.642;13.806;2023-01-29T05:46:28;3.50;99.90
36444;DHT22;24692;45.642;13.806;2023-01-29T05:48:54;3.50;99.90
36444;DHT22;24692;45.642;13.806;2023-01-29T05:51:20;3.50;99.90
36444;DHT22;24692;45.642;13.806;2023-01-29T05:53:45;3.50;99.90
36444;DHT22;24692;45.642;13.806;2023-01-29T05:56:11;3.60;99.90
36444;DHT22;24692;45.642;13.806;2023-01-29T05:58:37;3.40;99.90
36444;DHT22;24692;45.642;13.806;2023-01-29T06:03:34;3.50;99.90
36444;DHT22;24692;45.642;13.806;2023-01-29T06:06:01;3.50;99.90
36444;DHT22;24692;45.642;13.806;2023-01-29T06:08:26;3.50;99.90
36444;DHT22;24692;45.642;13.806;2023-01-29T06:10:52;3.50;99.90
36444;DHT22;24692;45.642;13.806;2023-01-29T06:13:17;3.50;99.90
36444;DHT22;24692;45.642;13.806;2023-01-29T06:15:43;3.50;99.90
36444;DHT22;24692;45.642;13.806;2023-01-29T06:18:09;3.50;99.90
36444;DHT22;24692;45.642;13.806;2023-01-29T06:20:35;3.50;99.90
36444;DHT22;24692;45.642;13.806;2023-01-29T06:23:01;3.40;99.90
36444;DHT22;24692;45.642;13.806;2023-01-29T06:25:26;3.40;99.90
36444;DHT22;24692;45.642;13.806;2023-01-29T06:27:52;3.40;99.90
36444;DHT22;24692;45.642;13.806;2023-01-29T06:30:18;3.30;99.90
36444;DHT22;24692;45.642;13.806;2023-01-29T06:32:43;3.40;99.90
36444;DHT22;24692;45.642;13.806;2023-01-29T06:35:09;3.50;99.90
36444;DHT22;24692;45.642;13.806;2023-01-29T06:37:35;3.50;99.90
36444;DHT22;24692;45.642;13.806;2023-01-29T06:40:01;3.50;99.90
36444;DHT22;24692;45.642;13.806;2023-01-29T06:42:27;3.60;99.90
36444;DHT22;24692;45.642;13.806;2023-01-29T06:44:54;3.60;99.90
36444;DHT22;24692;45.642;13.806;2023-01-29T06:47:20;3.60;99.90
36444;DHT22;24692;45.642;13.806;2023-01-29T06:49:46;3.70;99.90
36444;DHT22;24692;45.642;13.806;2023-01-29T06:52:11;3.60;99.90
36444;DHT22;24692;45.642;13.806;2023-01-29T06:54:37;3.60;99.90
36444;DHT22;24692;45.642;13.806;2023-01-29T06:57:03;3.50;99.90
36444;DHT22;24692;45.642;13.806;2023-01-29T06:59:28;3.70;99.90
36444;DHT22;24692;45.642;13.806;2023-01-29T07:01:54;3.60;99.90
36444;DHT22;24692;45.642;13.806;2023-01-29T07:04:20;3.70;99.90
36444;DHT22;24692;45.642;13.806;2023-01-29T07:06:45;3.80;99.90
36444;DHT22;24692;45.642;13.806;2023-01-29T07:09:12;3.90;99.90
36444;DHT22;24692;45.642;13.806;2023-01-29T07:11:41;3.80;99.90
36444;DHT22;24692;45.642;13.806;2023-01-29T07:14:06;3.80;99.90
36444;DHT22;24692;45.642;13.806;2023-01-29T07:16:32;3.80;99.90
36444;DHT22;24692;45.642;13.806;2023-01-29T07:18:58;3.80;99.90
36444;DHT22;24692;45.642;13.806;2023-01-29T07:21:23;3.90;99.90
36444;DHT22;24692;45.642;13.806;2023-01-29T07:23:49;4.20;99.90
36444;DHT22;24692;45.642;13.806;2023-01-29T07:26:16;5.40;99.90
36444;DHT22;24692;45.642;13.806;2023-01-29T07:28:42;6.90;99.90
36444;DHT22;24692;45.642;13.806;2023-01-29T07:31:11;8.30;99.90
36444;DHT22;24692;45.642;13.806;2023-01-29T07:33:37;9.60;99.90
36444;DHT22;24692;45.642;13.806;2023-01-29T07:36:07;10.60;99.90
36444;DHT22;24692;45.642;13.806;2023-01-29T07:38:32;11.40;99.90
36444;DHT22;24692;45.642;13.806;2023-01-29T07:40:58;11.90;99.90
36444;DHT22;24692;45.642;13.806;2023-01-29T07:43:24;12.30;99.90
36444;DHT22;24692;45.642;13.806;2023-01-29T07:45:49;12.80;99.90
36444;DHT22;24692;45.642;13.806;2023-01-29T07:48:16;13.60;99.90
36444;DHT22;24692;45.642;13.806;2023-01-29T07:50:42;13.70;99.90
36444;DHT22;24692;45.642;13.806;2023-01-29T07:53:14;13.50;99.90
36444;DHT22;24692;45.642;13.806;2023-01-29T07:55:43;13.10;99.90
36444;DHT22;24692;45.642;13.806;2023-01-29T07:58:09;13.60;99.90
36444;DHT22;24692;45.642;13.806;2023-01-29T08:00:35;14.00;99.90
36444;DHT22;24692;45.642;13.806;2023-01-29T08:03:05;12.80;99.90
36444;DHT22;24692;45.642;13.806;2023-01-29T08:05:31;12.90;99.90
36444;DHT22;24692;45.642;13.806;2023-01-29T08:07:57;13.30;99.90
36444;DHT22;24692;45.642;13.806;2023-01-29T08:10:23;14.10;99.90
36444;DHT22;24692;45.642;13.806;2023-01-29T08:12:59;14.70;99.90
36444;DHT22;24692;45.642;13.806;2023-01-29T08:15:25;14.80;99.90
36444;DHT22;24692;45.642;13.806;2023-01-29T08:17:52;14.20;99.90
36444;DHT22;24692;45.642;13.806;2023-01-29T08:20:18;14.90;99.90
36444;DHT22;24692;45.642;13.806;2023-01-29T08:22:44;15.50;99.90
36444;DHT22;24692;45.642;13.806;2023-01-29T08:25:10;15.40;99.90
36444;DHT22;24692;45.642;13.806;2023-01-29T08:27:36;15.70;99.90
36444;DHT22;24692;45.642;13.806;2023-01-29T08:30:02;15.50;99.90
36444;DHT22;24692;45.642;13.806;2023-01-29T08:32:27;16.20;99.90
36444;DHT22;24692;45.642;13.806;2023-01-29T08:34:53;16.50;99.90
36444;DHT22;24692;45.642;13.806;2023-01-29T08:37:19;16.40;99.90
36444;DHT22;24692;45.642;13.806;2023-01-29T08:39:44;16.60;99.90
36444;DHT22;24692;45.642;13.806;2023-01-29T08:42:10;16.50;99.90
36444;DHT22;24692;45.642;13.806;2023-01-29T08:44:35;16.30;99.90
36444;DHT22;24692;45.642;13.806;2023-01-29T08:47:01;16.10;99.90
36444;DHT22;24692;45.642;13.806;2023-01-29T08:49:27;16.10;99.90
36444;DHT22;24692;45.642;13.806;2023-01-29T08:51:53;16.20;99.90
36444;DHT22;24692;45.642;13.806;2023-01-29T08:54:21;15.50;99.90
36444;DHT22;24692;45.642;13.806;2023-01-29T08:56:47;15.70;99.90
36444;DHT22;24692;45.642;13.806;2023-01-29T08:59:13;16.00;99.90
36444;DHT22;24692;45.642;13.806;2023-01-29T09:01:39;16.70;99.90
36444;DHT22;24692;45.642;13.806;2023-01-29T09:04:04;17.30;99.90
36444;DHT22;24692;45.642;13.806;2023-01-29T09:06:30;17.00;99.90
36444;DHT22;24692;45.642;13.806;2023-01-29T09:08:56;16.60;99.90
36444;DHT22;24692;45.642;13.806;2023-01-29T09:11:21;15.80;99.90
36444;DHT22;24692;45.642;13.806;2023-01-29T09:13:47;15.70;99.90
36444;DHT22;24692;45.642;13.806;2023-01-29T09:16:12;16.40;99.90
36444;DHT22;24692;45.642;13.806;2023-01-29T09:18:38;17.00;99.90
36444;DHT22;24692;45.642;13.806;2023-01-29T09:21:04;17.10;99.90
36444;DHT22;24692;45.642;13.806;2023-01-29T09:23:30;17.10;99.90
36444;DHT22;24692;45.642;13.806;2023-01-29T09:25:56;16.80;99.90
36444;DHT22;24692;45.642;13.806;2023-01-29T09:28:22;17.10;99.90
36444;DHT22;24692;45.642;13.806;2023-01-29T09:30:47;17.00;99.90
36444;DHT22;24692;45.642;13.806;2023-01-29T09:33:13;17.40;99.90
36444;DHT22;24692;45.642;13.806;2023-01-29T09:35:40;17.80;99.90
36444;DHT22;24692;45.642;13.806;2023-01-29T09:38:07;16.50;99.90
36444;DHT22;24692;45.642;13.806;2023-01-29T09:40:46;16.80;99.90
36444;DHT22;24692;45.642;13.806;2023-01-29T09:43:25;17.10;99.90
36444;DHT22;24692;45.642;13.806;2023-01-29T09:45:58;17.00;99.90
36444;DHT22;24692;45.642;13.806;2023-01-29T09:48:29;17.10;99.90
36444;DHT22;24692;45.642;13.806;2023-01-29T09:50:59;17.40;99.90
36444;DHT22;24692;45.642;13.806;2023-01-29T09:53:39;18.00;99.90
36444;DHT22;24692;45.642;13.806;2023-01-29T09:56:21;18.50;99.90
36444;DHT22;24692;45.642;13.806;2023-01-29T09:58:56;17.50;99.90
36444;DHT22;24692;45.642;13.806;2023-01-29T10:01:39;17.90;99.90
36444;DHT22;24692;45.642;13.806;2023-01-29T10:10:12;18.90;99.90
36444;DHT22;24692;45.642;13.806;2023-01-29T10:13:18;18.90;99.60
36444;DHT22;24692;45.642;13.806;2023-01-29T10:15:48;18.30;99.40
36444;DHT22;24692;45.642;13.806;2023-01-29T10:21:03;18.00;99.90
36444;DHT22;24692;45.642;13.806;2023-01-29T10:23:35;17.60;99.90
36444;DHT22;24692;45.642;13.806;2023-01-29T10:26:02;17.60;99.60
36444;DHT22;24692;45.642;13.806;2023-01-29T10:28:38;17.60;99.60
36444;DHT22;24692;45.642;13.806;2023-01-29T10:33:41;16.30;99.90
36444;DHT22;24692;45.642;13.806;2023-01-29T10:36:21;16.10;99.90
36444;DHT22;24692;45.642;13.806;2023-01-29T10:38:48;16.80;99.90
36444;DHT22;24692;45.642;13.806;2023-01-29T11:00:57;17.10;98.50
36444;DHT22;24692;45.642;13.806;2023-01-29T11:03:28;17.10;98.10
36444;DHT22;24692;45.642;13.806;2023-01-29T11:05:56;17.40;98.90
36444;DHT22;24692;45.642;13.806;2023-01-29T11:08:27;17.90;98.20
36444;DHT22;24692;45.642;13.806;2023-01-29T11:11:12;18.10;98.40
36444;DHT22;24692;45.642;13.806;2023-01-29T11:13:47;18.10;97.70
36444;DHT22;24692;45.642;13.806;2023-01-29T11:16:15;18.60;97.90
36444;DHT22;24692;45.642;13.806;2023-01-29T11:19:00;18.40;98.20
36444;DHT22;24692;45.642;13.806;2023-01-29T11:21:28;17.40;97.60
36444;DHT22;24692;45.642;13.806;2023-01-29T11:24:11;17.40;98.30
36444;DHT22;24692;45.642;13.806;2023-01-29T11:26:41;17.30;97.90
36444;DHT22;24692;45.642;13.806;2023-01-29T11:31:56;18.20;97.10
36444;DHT22;24692;45.642;13.806;2023-01-29T11:34:23;17.80;97.60
36444;DHT22;24692;45.642;13.806;2023-01-29T11:37:14;17.60;98.00
36444;DHT22;24692;45.642;13.806;2023-01-29T11:39:45;17.20;97.80
36444;DHT22;24692;45.642;13.806;2023-01-29T11:42:19;17.50;97.70
36444;DHT22;24692;45.642;13.806;2023-01-29T11:44:45;17.40;98.00
36444;DHT22;24692;45.642;13.806;2023-01-29T11:47:25;17.80;97.70
36444;DHT22;24692;45.642;13.806;2023-01-29T11:49:56;18.30;97.30
36444;DHT22;24692;45.642;13.806;2023-01-29T11:52:24;18.60;96.90
36444;DHT22;24692;45.642;13.806;2023-01-29T11:54:56;18.00;96.70
36444;DHT22;24692;45.642;13.806;2023-01-29T11:57:30;18.10;97.30
36444;DHT22;24692;45.642;13.806;2023-01-29T12:05:21;18.10;96.70
36444;DHT22;24692;45.642;13.806;2023-01-29T12:07:50;18.30;96.90
36444;DHT22;24692;45.642;13.806;2023-01-29T12:15:39;17.40;96.90
36444;DHT22;24692;45.642;13.806;2023-01-29T12:18:24;17.30;97.10
36444;DHT22;24692;45.642;13.806;2023-01-29T12:20:57;17.60;97.40
36444;DHT22;24692;45.642;13.806;2023-01-29T12:23:54;17.20;97.50
36444;DHT22;24692;45.642;13.806;2023-01-29T12:26:29;17.80;97.20
36444;DHT22;24692;45.642;13.806;2023-01-29T12:32:18;18.20;96.90
36444;DHT22;24692;45.642;13.806;2023-01-29T12:34:51;18.20;96.90
36444;DHT22;24692;45.642;13.806;2023-01-29T12:39:48;18.10;96.60
36444;DHT22;24692;45.642;13.806;2023-01-29T12:42:21;18.00;97.20
36444;DHT22;24692;45.642;13.806;2023-01-29T12:47:37;17.00;97.50
36444;DHT22;24692;45.642;13.806;2023-01-29T12:50:28;17.30;97.90
36444;DHT22;24692;45.642;13.806;2023-01-29T12:55:53;17.60;97.20
36444;DHT22;24692;45.642;13.806;2023-01-29T13:00:48;16.80;98.20
36444;DHT22;24692;45.642;13.806;2023-01-29T13:06:01;17.70;97.90
36444;DHT22;24692;45.642;13.806;2023-01-29T13:08:38;18.20;96.80
36444;DHT22;24692;45.642;13.806;2023-01-29T13:11:32;18.00;96.60
36444;DHT22;24692;45.642;13.806;2023-01-29T13:14:02;17.60;97.10
36444;DHT22;24692;45.642;13.806;2023-01-29T13:16:36;17.90;96.90
36444;DHT22;24692;45.642;13.806;2023-01-29T13:21:54;18.10;97.00
36444;DHT22;24692;45.642;13.806;2023-01-29T13:24:24;18.00;96.80
36444;DHT22;24692;45.642;13.806;2023-01-29T13:26:52;17.70;96.90
36444;DHT22;24692;45.642;13.806;2023-01-29T13:29:27;17.10;97.80
36444;DHT22;24692;45.642;13.806;2023-01-29T13:32:02;17.30;97.10
36444;DHT22;24692;45.642;13.806;2023-01-29T13:34:43;17.80;97.50
36444;DHT22;24692;45.642;13.806;2023-01-29T13:37:25;17.90;97.00
36444;DHT22;24692;45.642;13.806;2023-01-29T13:39:53;17.70;96.30
36444;DHT22;24692;45.642;13.806;2023-01-29T13:42:25;17.00;97.00
36444;DHT22;24692;45.642;13.806;2023-01-29T13:45:01;17.10;97.20
36444;DHT22;24692;45.642;13.806;2023-01-29T13:47:33;17.30;96.90
36444;DHT22;24692;45.642;13.806;2023-01-29T13:53:06;17.40;96.80
36444;DHT22;24692;45.642;13.806;2023-01-29T13:55:38;16.60;97.00
36444;DHT22;24692;45.642;13.806;2023-01-29T14:00:58;16.80;97.50
36444;DHT22;24692;45.642;13.806;2023-01-29T14:13:42;17.30;97.30
36444;DHT22;24692;45.642;13.806;2023-01-29T14:21:25;16.60;97.50
36444;DHT22;24692;45.642;13.806;2023-01-29T14:23:59;16.90;97.70
36444;DHT22;24692;45.642;13.806;2023-01-29T14:31:59;16.90;97.20
36444;DHT22;24692;45.642;13.806;2023-01-29T14:34:32;16.50;97.60
36444;DHT22;24692;45.642;13.806;2023-01-29T14:37:32;16.40;98.20
36444;DHT22;24692;45.642;13.806;2023-01-29T14:40:13;16.10;98.20
36444;DHT22;24692;45.642;13.806;2023-01-29T14:42:56;16.00;98.40
36444;DHT22;24692;45.642;13.806;2023-01-29T14:45:35;15.40;98.40
36444;DHT22;24692;45.642;13.806;2023-01-29T14:53:24;14.80;99.60
36444;DHT22;24692;45.642;13.806;2023-01-29T15:03:51;14.80;99.50
36444;DHT22;24692;45.642;13.806;2023-01-29T15:06:28;15.10;99.40
36444;DHT22;24692;45.642;13.806;2023-01-29T15:09:03;14.80;99.40
36444;DHT22;24692;45.642;13.806;2023-01-29T15:11:39;13.70;99.90
36444;DHT22;24692;45.642;13.806;2023-01-29T15:14:21;13.00;99.90
36444;DHT22;24692;45.642;13.806;2023-01-29T15:17:35;12.40;99.90
36444;DHT22;24692;45.642;13.806;2023-01-29T15:20:26;12.90;99.90
36444;DHT22;24692;45.642;13.806;2023-01-29T15:22:52;12.90;99.90
36444;DHT22;24692;45.642;13.806;2023-01-29T15:25:18;13.00;99.90
36444;DHT22;24692;45.642;13.806;2023-01-29T15:27:46;12.80;99.90
36444;DHT22;24692;45.642;13.806;2023-01-29T15:30:18;12.60;99.90
36444;DHT22;24692;45.642;13.806;2023-01-29T15:32:45;12.40;99.90
36444;DHT22;24692;45.642;13.806;2023-01-29T15:35:36;12.50;99.90
36444;DHT22;24692;45.642;13.806;2023-01-29T15:38:26;12.60;99.90
36444;DHT22;24692;45.642;13.806;2023-01-29T15:45:48;11.80;99.90
36444;DHT22;24692;45.642;13.806;2023-01-29T15:48:20;11.60;99.90
36444;DHT22;24692;45.642;13.806;2023-01-29T15:50:50;11.20;99.90
36444;DHT22;24692;45.642;13.806;2023-01-29T15:53:27;10.80;99.90
36444;DHT22;24692;45.642;13.806;2023-01-29T15:55:54;10.50;99.90
36444;DHT22;24692;45.642;13.806;2023-01-29T15:58:29;10.10;99.90
36444;DHT22;24692;45.642;13.806;2023-01-29T16:00:57;9.70;99.90
36444;DHT22;24692;45.642;13.806;2023-01-29T16:03:26;9.30;99.90
36444;DHT22;24692;45.642;13.806;2023-01-29T16:05:53;8.90;99.90
36444;DHT22;24692;45.642;13.806;2023-01-29T16:08:20;8.30;99.90
36444;DHT22;24692;45.642;13.806;2023-01-29T16:11:00;8.20;99.90
36444;DHT22;24692;45.642;13.806;2023-01-29T16:13:28;7.60;99.90
36444;DHT22;24692;45.642;13.806;2023-01-29T16:15:56;7.10;99.90
36444;DHT22;24692;45.642;13.806;2023-01-29T16:18:36;7.10;99.90
36444;DHT22;24692;45.642;13.806;2023-01-29T16:21:05;7.00;99.90
36444;DHT22;24692;45.642;13.806;2023-01-29T16:23:43;7.00;99.90
36444;DHT22;24692;45.642;13.806;2023-01-29T16:26:15;7.00;99.90
36444;DHT22;24692;45.642;13.806;2023-01-29T16:28:42;6.80;99.90
36444;DHT22;24692;45.642;13.806;2023-01-29T16:31:09;6.80;99.90
36444;DHT22;24692;45.642;13.806;2023-01-29T16:33:37;6.80;99.90
36444;DHT22;24692;45.642;13.806;2023-01-29T16:36:15;6.70;99.90
36444;DHT22;24692;45.642;13.806;2023-01-29T16:38:48;6.40;99.90
36444;DHT22;24692;45.642;13.806;2023-01-29T16:46:32;6.30;99.90
36444;DHT22;24692;45.642;13.806;2023-01-29T16:48:58;6.20;99.90
36444;DHT22;24692;45.642;13.806;2023-01-29T16:51:29;6.00;99.90
36444;DHT22;24692;45.642;13.806;2023-01-29T16:54:12;6.10;99.90
36444;DHT22;24692;45.642;13.806;2023-01-29T16:56:47;6.00;99.90
36444;DHT22;24692;45.642;13.806;2023-01-29T16:59:32;6.00;99.90
36444;DHT22;24692;45.642;13.806;2023-01-29T17:01:59;6.00;99.90
36444;DHT22;24692;45.642;13.806;2023-01-29T17:04:25;6.10;99.90
36444;DHT22;24692;45.642;13.806;2023-01-29T17:06:58;6.20;99.90
36444;DHT22;24692;45.642;13.806;2023-01-29T17:09:34;6.10;99.90
36444;DHT22;24692;45.642;13.806;2023-01-29T17:12:04;6.10;99.90
36444;DHT22;24692;45.642;13.806;2023-01-29T17:14:32;6.20;99.90
36444;DHT22;24692;45.642;13.806;2023-01-29T17:17:14;6.10;99.90
36444;DHT22;24692;45.642;13.806;2023-01-29T17:19:40;6.10;99.90
36444;DHT22;24692;45.642;13.806;2023-01-29T17:22:06;6.10;99.90
36444;DHT22;24692;45.642;13.806;2023-01-29T17:24:42;6.10;99.90
36444;DHT22;24692;45.642;13.806;2023-01-29T17:27:17;6.10;99.90
36444;DHT22;24692;45.642;13.806;2023-01-29T17:29:43;6.30;99.90
36444;DHT22;24692;45.642;13.806;2023-01-29T17:32:09;6.10;99.90
36444;DHT22;24692;45.642;13.806;2023-01-29T17:34:35;6.00;99.90
36444;DHT22;24692;45.642;13.806;2023-01-29T17:37:00;6.00;99.90
36444;DHT22;24692;45.642;13.806;2023-01-29T17:39:26;5.70;99.90
36444;DHT22;24692;45.642;13.806;2023-01-29T17:41:53;5.70;99.90
36444;DHT22;24692;45.642;13.806;2023-01-29T17:44:20;5.60;99.90
36444;DHT22;24692;45.642;13.806;2023-01-29T17:46:46;5.60;99.90
36444;DHT22;24692;45.642;13.806;2023-01-29T17:49:26;5.60;99.90
36444;DHT22;24692;45.642;13.806;2023-01-29T17:51:53;5.70;99.90
36444;DHT22;24692;45.642;13.806;2023-01-29T17:54:20;5.70;99.90
36444;DHT22;24692;45.642;13.806;2023-01-29T17:56:46;5.60;99.90
36444;DHT22;24692;45.642;13.806;2023-01-29T17:59:17;5.60;99.90
36444;DHT22;24692;45.642;13.806;2023-01-29T18:01:43;5.60;99.90
36444;DHT22;24692;45.642;13.806;2023-01-29T18:04:10;5.70;99.90
36444;DHT22;24692;45.642;13.806;2023-01-29T18:06:36;5.60;99.90
36444;DHT22;24692;45.642;13.806;2023-01-29T18:09:03;5.60;99.90
36444;DHT22;24692;45.642;13.806;2023-01-29T18:11:28;5.60;99.90
36444;DHT22;24692;45.642;13.806;2023-01-29T18:13:55;5.60;99.90
36444;DHT22;24692;45.642;13.806;2023-01-29T18:16:21;5.70;99.90
36444;DHT22;24692;45.642;13.806;2023-01-29T18:18:48;5.70;99.90
36444;DHT22;24692;45.642;13.806;2023-01-29T18:21:13;5.80;99.90
36444;DHT22;24692;45.642;13.806;2023-01-29T18:23:39;5.60;99.90
36444;DHT22;24692;45.642;13.806;2023-01-29T18:26:05;5.60;99.90
36444;DHT22;24692;45.642;13.806;2023-01-29T18:28:32;5.60;99.90
36444;DHT22;24692;45.642;13.806;2023-01-29T18:31:02;5.50;99.90
36444;DHT22;24692;45.642;13.806;2023-01-29T18:33:28;5.60;99.90
36444;DHT22;24692;45.642;13.806;2023-01-29T18:35:54;5.50;99.90